createdAt,value
2023-03-14T00:00:17.534Z,11.65
2023-03-14T00:02:43.953Z,11.62
2023-03-14T00:05:10.924Z,11.80
2023-03-14T00:07:39.039Z,11.90
2023-03-14T00:10:09.203Z,11.89
2023-03-14T00:12:35.632Z,11.90
2023-03-14T00:15:04.409Z,11.95
2023-03-14T00:17:31.612Z,11.90
2023-03-14T00:19:58.001Z,11.84
2023-03-14T00:22:24.532Z,11.92
2023-03-14T00:24:51.479Z,11.93
2023-03-14T00:27:17.881Z,11.92
2023-03-14T00:29:44.900Z,11.92
2023-03-14T00:32:11.566Z,11.89
2023-03-14T00:34:38.134Z,11.74
2023-03-14T00:37:04.573Z,11.77
2023-03-14T00:39:31.078Z,11.67
2023-03-14T00:41:57.549Z,11.55
2023-03-14T00:44:24.078Z,11.45
2023-03-14T00:46:50.623Z,11.53
2023-03-14T00:49:17.166Z,11.53
2023-03-14T00:51:43.547Z,11.60
2023-03-14T00:54:09.957Z,11.48
2023-03-14T00:56:36.341Z,11.32
2023-03-14T00:59:02.719Z,11.39
2023-03-14T01:01:29.189Z,11.44
2023-03-14T01:03:56.692Z,11.43
2023-03-14T01:06:26.067Z,11.28
2023-03-14T01:08:53.245Z,11.40
2023-03-14T01:11:21.673Z,11.37
2023-03-14T01:13:48.752Z,11.54
2023-03-14T01:16:16.121Z,11.28
2023-03-14T01:18:44.956Z,11.36
2023-03-14T01:21:18.283Z,11.51
2023-03-14T01:23:46.402Z,11.48
2023-03-14T01:26:15.581Z,11.27
2023-03-14T01:28:42.937Z,11.32
2023-03-14T01:31:11.207Z,11.39
2023-03-14T01:33:38.518Z,11.24
2023-03-14T01:36:06.466Z,11.43
2023-03-14T01:38:35.315Z,11.38
2023-03-14T01:41:02.107Z,11.50
2023-03-14T01:43:29.038Z,11.54
2023-03-14T01:46:07.623Z,11.62
2023-03-14T01:48:37.977Z,11.59
2023-03-14T01:51:07.962Z,11.59
2023-03-14T01:53:35.279Z,11.53
2023-03-14T01:56:04.751Z,11.62
2023-03-14T01:58:35.326Z,11.54
2023-03-14T02:01:03.016Z,11.60
2023-03-14T02:03:32.154Z,11.54
2023-03-14T02:06:04.639Z,11.51
2023-03-14T02:08:32.140Z,11.40
2023-03-14T02:10:58.617Z,11.32
2023-03-14T02:13:25.133Z,11.28
2023-03-14T02:15:51.736Z,11.18
2023-03-14T02:18:19.616Z,11.30
2023-03-14T02:21:02.949Z,10.97
2023-03-14T02:24:05.886Z,11.15
2023-03-14T02:26:39.278Z,11.29
2023-03-14T02:29:05.919Z,11.28
2023-03-14T02:31:33.570Z,11.26
2023-03-14T02:34:00.825Z,11.31
2023-03-14T02:36:28.468Z,11.38
2023-03-14T02:39:07.170Z,11.22
2023-03-14T02:41:33.614Z,11.21
2023-03-14T02:43:59.973Z,11.14
2023-03-14T02:46:26.543Z,11.26
2023-03-14T02:48:55.380Z,11.19
2023-03-14T02:51:23.375Z,11.20
2023-03-14T02:53:49.809Z,11.10
2023-03-14T02:56:16.494Z,11.08
2023-03-14T02:58:42.954Z,11.14
2023-03-14T03:01:09.467Z,11.12
2023-03-14T03:03:36.081Z,11.01
2023-03-14T03:06:03.086Z,11.03
2023-03-14T03:08:30.014Z,11.12
2023-03-14T03:10:58.754Z,10.99
2023-03-14T03:13:25.281Z,10.93
2023-03-14T03:15:52.122Z,10.99
2023-03-14T03:18:18.616Z,10.86
2023-03-14T03:20:45.076Z,11.04
2023-03-14T03:23:11.502Z,10.97
2023-03-14T03:25:38.049Z,11.13
2023-03-14T03:28:08.549Z,11.08
2023-03-14T03:30:40.045Z,10.86
2023-03-14T03:33:06.811Z,10.94
2023-03-14T03:35:33.682Z,10.83
2023-03-14T03:38:00.189Z,10.83
2023-03-14T03:40:26.752Z,10.85
2023-03-14T03:42:55.310Z,10.90
2023-03-14T03:45:21.932Z,10.92
2023-03-14T03:47:48.430Z,11.01
2023-03-14T03:50:14.920Z,10.86
2023-03-14T03:52:41.350Z,10.84
2023-03-14T03:55:08.301Z,10.78
2023-03-14T03:57:35.710Z,10.73
2023-03-14T04:00:02.269Z,10.81
2023-03-14T04:02:28.744Z,10.75
2023-03-14T04:04:55.295Z,10.77
2023-03-14T04:07:21.883Z,10.77
2023-03-14T04:09:48.578Z,10.70
2023-03-14T04:12:15.023Z,10.74
2023-03-14T04:14:42.050Z,10.78
2023-03-14T04:17:09.021Z,10.75
2023-03-14T04:19:35.596Z,10.70
2023-03-14T04:22:01.991Z,10.67
2023-03-14T04:24:28.517Z,10.69
2023-03-14T04:26:55.022Z,10.61
2023-03-14T04:29:21.400Z,10.65
2023-03-14T04:31:47.842Z,10.48
2023-03-14T04:34:14.198Z,10.59
2023-03-14T04:36:40.589Z,10.59
2023-03-14T04:39:07.040Z,10.58
2023-03-14T04:41:33.383Z,10.56
2023-03-14T04:43:59.764Z,10.52
2023-03-14T04:46:26.321Z,10.39
2023-03-14T04:48:52.686Z,10.39
2023-03-14T04:51:19.071Z,10.35
2023-03-14T04:53:45.452Z,10.49
2023-03-14T04:56:13.866Z,10.46
2023-03-14T04:58:40.507Z,10.49
2023-03-14T05:01:07.735Z,10.48
2023-03-14T05:03:34.247Z,10.37
2023-03-14T05:06:01.755Z,10.63
2023-03-14T05:08:28.285Z,10.61
2023-03-14T05:10:56.095Z,10.63
2023-03-14T05:13:22.699Z,10.56
2023-03-14T05:15:49.586Z,10.48
2023-03-14T05:18:16.039Z,10.38
2023-03-14T05:20:44.026Z,10.36
2023-03-14T05:23:10.580Z,10.44
2023-03-14T05:25:37.141Z,10.46
2023-03-14T05:28:03.753Z,10.52
2023-03-14T05:30:31.766Z,10.53
2023-03-14T05:32:58.138Z,10.68
2023-03-14T05:35:24.634Z,10.63
2023-03-14T05:37:51.027Z,10.56
2023-03-14T05:40:17.429Z,10.36
2023-03-14T05:42:43.800Z,10.52
2023-03-14T05:45:11.224Z,10.64
2023-03-14T05:47:37.612Z,10.60
2023-03-14T05:50:04.285Z,10.75
2023-03-14T05:52:30.636Z,10.88
2023-03-14T05:54:57.113Z,10.77
2023-03-14T05:57:23.657Z,10.77
2023-03-14T05:59:50.064Z,10.74
2023-03-14T06:02:16.786Z,10.78
2023-03-14T06:04:43.177Z,10.78
2023-03-14T06:07:09.803Z,10.77
2023-03-14T06:09:36.298Z,10.76
2023-03-14T06:12:02.697Z,10.74
2023-03-14T06:14:29.139Z,10.82
2023-03-14T06:16:55.542Z,10.70
2023-03-14T06:19:21.956Z,10.86
2023-03-14T06:21:48.383Z,10.48
2023-03-14T06:24:14.733Z,10.59
2023-03-14T06:26:41.367Z,10.75
2023-03-14T06:29:07.818Z,10.82
2023-03-14T06:31:34.650Z,10.87
2023-03-14T06:34:01.324Z,10.91
2023-03-14T06:36:27.707Z,11.18
2023-03-14T06:38:54.136Z,11.15
2023-03-14T06:41:20.499Z,11.42
2023-03-14T06:43:46.929Z,11.32
2023-03-14T06:46:13.423Z,11.62
2023-03-14T06:48:39.881Z,11.87
2023-03-14T06:51:07.355Z,11.75
2023-03-14T06:53:34.388Z,11.81
2023-03-14T06:56:00.831Z,11.91
2023-03-14T06:58:27.192Z,12.00
2023-03-14T07:00:55.333Z,12.21
2023-03-14T07:03:21.791Z,12.12
2023-03-14T07:05:48.247Z,12.14
2023-03-14T07:08:14.608Z,12.32
2023-03-14T07:10:41.263Z,12.46
2023-03-14T07:13:07.723Z,12.49
2023-03-14T07:15:34.372Z,12.31
2023-03-14T07:18:00.834Z,12.59
2023-03-14T07:20:27.358Z,12.78
2023-03-14T07:22:53.993Z,13.12
2023-03-14T07:25:20.454Z,13.29
2023-03-14T07:27:48.706Z,13.41
2023-03-14T07:30:15.285Z,13.16
2023-03-14T07:32:41.851Z,13.37
2023-03-14T07:35:09.101Z,13.55
2023-03-14T07:37:35.598Z,13.85
2023-03-14T07:40:02.049Z,13.96
2023-03-14T07:42:28.475Z,13.61
2023-03-14T07:44:54.895Z,13.97
2023-03-14T07:47:21.349Z,14.05
2023-03-14T07:49:47.897Z,13.46
2023-03-14T07:52:14.296Z,13.61
2023-03-14T07:54:40.660Z,13.46
2023-03-14T07:57:07.086Z,13.24
2023-03-14T07:59:33.591Z,13.64
2023-03-14T08:01:59.998Z,13.77
2023-03-14T08:04:26.348Z,14.01
2023-03-14T08:06:53.693Z,14.45
2023-03-14T08:09:20.097Z,14.69
2023-03-14T08:11:46.505Z,14.81
2023-03-14T08:14:12.933Z,14.96
2023-03-14T08:16:39.307Z,14.66
2023-03-14T08:19:05.710Z,14.56
2023-03-14T08:21:32.331Z,14.56
2023-03-14T08:23:58.750Z,14.51
2023-03-14T08:26:25.104Z,14.56
2023-03-14T08:28:51.534Z,14.43
2023-03-14T08:31:18.365Z,14.54
2023-03-14T08:33:45.009Z,14.74
2023-03-14T08:36:11.681Z,14.89
2023-03-14T08:38:38.146Z,14.85
2023-03-14T08:41:05.085Z,15.04
2023-03-14T08:43:31.947Z,15.22
2023-03-14T08:45:59.573Z,14.86
2023-03-14T08:48:25.918Z,14.74
2023-03-14T08:50:52.367Z,14.29
2023-03-14T08:53:19.509Z,14.24
2023-03-14T08:55:45.902Z,14.36
2023-03-14T08:58:12.289Z,14.25
2023-03-14T09:00:38.930Z,14.22
2023-03-14T09:03:05.626Z,13.84
2023-03-14T09:05:34.770Z,14.06
2023-03-14T09:08:02.174Z,13.35
2023-03-14T09:10:28.907Z,13.11
2023-03-14T09:12:55.541Z,12.97
2023-03-14T09:15:21.945Z,13.17
2023-03-14T09:17:48.323Z,13.30
2023-03-14T09:20:15.314Z,13.21
2023-03-14T09:22:41.873Z,13.46
2023-03-14T09:25:08.662Z,13.52
2023-03-14T09:27:35.023Z,13.68
2023-03-14T09:30:01.430Z,13.70
2023-03-14T09:32:27.920Z,13.77
2023-03-14T09:34:54.298Z,13.89
2023-03-14T09:37:21.946Z,13.61
2023-03-14T09:39:48.335Z,13.83
2023-03-14T09:42:18.594Z,14.15
2023-03-14T09:44:53.778Z,14.20
2023-03-14T09:47:20.947Z,14.38
2023-03-14T09:49:47.300Z,14.41
2023-03-14T09:52:33.350Z,14.55
2023-03-14T09:55:04.463Z,14.43
2023-03-14T09:57:33.160Z,14.46
2023-03-14T10:00:14.935Z,14.39
2023-03-14T10:02:43.787Z,14.43
2023-03-14T10:05:19.228Z,14.82
2023-03-14T10:07:46.256Z,14.83
2023-03-14T10:10:18.233Z,15.04
2023-03-14T10:12:47.941Z,15.18
2023-03-14T10:15:19.145Z,15.25
2023-03-14T10:17:49.406Z,14.99
2023-03-14T10:20:33.481Z,14.61
2023-03-14T10:23:12.105Z,14.79
2023-03-14T10:25:42.994Z,14.50
2023-03-14T10:28:26.391Z,14.39
2023-03-14T10:30:53.421Z,14.46
2023-03-14T10:33:27.719Z,14.92
2023-03-14T10:36:02.105Z,14.76
2023-03-14T10:38:30.795Z,14.46
2023-03-14T10:40:59.592Z,14.40
2023-03-14T10:43:37.033Z,14.51
2023-03-14T10:46:13.354Z,14.33
2023-03-14T10:48:43.160Z,13.90
2023-03-14T10:51:27.486Z,13.24
2023-03-14T10:54:01.017Z,13.68
2023-03-14T10:56:33.802Z,13.72
2023-03-14T10:59:00.635Z,13.68
2023-03-14T11:01:50.214Z,13.57
2023-03-14T11:04:45.163Z,12.94
2023-03-14T11:07:20.609Z,12.69
2023-03-14T11:10:17.487Z,12.70
2023-03-14T11:13:16.149Z,12.38
2023-03-14T11:16:01.186Z,12.43
2023-03-14T11:18:56.791Z,12.70
2023-03-14T11:21:55.243Z,12.68
2023-03-14T11:24:40.785Z,12.39
2023-03-14T11:27:19.475Z,12.95
2023-03-14T11:29:56.428Z,12.27
2023-03-14T11:32:34.689Z,11.97
2023-03-14T11:35:08.854Z,11.80
2023-03-14T11:37:47.267Z,11.25
2023-03-14T11:40:26.109Z,11.54
2023-03-14T11:43:14.621Z,11.63
2023-03-14T11:45:44.312Z,11.74
2023-03-14T11:48:29.036Z,11.75
2023-03-14T11:50:58.764Z,12.00
2023-03-14T11:53:44.474Z,12.34
2023-03-14T11:56:31.124Z,12.32
2023-03-14T11:59:02.830Z,12.49
2023-03-14T12:01:41.552Z,11.72
2023-03-14T12:04:30.674Z,11.56
2023-03-14T12:06:58.873Z,11.96
2023-03-14T12:09:26.196Z,11.89
2023-03-14T12:11:59.177Z,11.97
2023-03-14T12:14:29.367Z,11.76
2023-03-14T12:17:06.615Z,11.17
2023-03-14T12:19:40.900Z,10.73
2023-03-14T12:22:13.435Z,11.12
2023-03-14T12:24:49.955Z,11.07
2023-03-14T12:27:49.952Z,10.73
2023-03-14T12:30:28.413Z,10.56
2023-03-14T12:33:10.093Z,10.65
2023-03-14T12:35:50.823Z,10.84
2023-03-14T12:38:35.890Z,11.35
2023-03-14T12:41:27.561Z,11.74
2023-03-14T12:43:54.002Z,12.00
2023-03-14T12:46:28.250Z,11.52
2023-03-14T12:49:09.025Z,12.25
2023-03-14T12:51:44.675Z,12.51
2023-03-14T12:54:55.820Z,12.94
2023-03-14T12:57:46.167Z,13.44
2023-03-14T13:00:24.377Z,13.82
2023-03-14T13:02:51.360Z,14.39
2023-03-14T13:05:25.989Z,14.75
2023-03-14T13:07:55.608Z,14.81
2023-03-14T13:10:25.267Z,14.22
2023-03-14T13:13:16.436Z,14.44
2023-03-14T13:15:45.412Z,13.30
2023-03-14T13:18:24.943Z,13.51
2023-03-14T13:20:55.425Z,12.95
2023-03-14T13:23:35.244Z,13.51
2023-03-14T13:26:02.645Z,12.42
2023-03-14T13:28:30.790Z,12.78
2023-03-14T13:31:00.413Z,12.23
2023-03-14T13:33:26.888Z,11.96
2023-03-14T13:35:57.981Z,12.24
2023-03-14T13:38:28.254Z,11.62
2023-03-14T13:41:00.499Z,11.91
2023-03-14T13:43:33.069Z,12.19
2023-03-14T13:46:08.588Z,12.20
2023-03-14T13:48:47.162Z,11.11
2023-03-14T13:51:17.435Z,10.65
2023-03-14T13:53:54.717Z,10.77
2023-03-14T13:56:23.273Z,10.83
2023-03-14T13:58:50.571Z,10.82
2023-03-14T14:01:27.014Z,11.10
2023-03-14T14:03:56.998Z,10.74
2023-03-14T14:06:30.944Z,11.38
2023-03-14T14:09:00.130Z,10.89
2023-03-14T14:11:48.440Z,11.35
2023-03-14T14:14:44.584Z,11.11
2023-03-14T14:17:15.573Z,10.80
2023-03-14T14:19:43.137Z,11.24
2023-03-14T14:22:11.256Z,11.69
2023-03-14T14:24:39.389Z,11.21
2023-03-14T14:27:10.527Z,11.13
2023-03-14T14:29:36.926Z,11.81
2023-03-14T14:32:07.971Z,11.64
2023-03-14T14:34:57.236Z,11.80
2023-03-14T14:37:28.094Z,11.14
2023-03-14T14:40:00.568Z,10.50
2023-03-14T14:42:32.096Z,10.75
2023-03-14T14:44:59.899Z,11.10
2023-03-14T14:47:29.394Z,10.64
2023-03-14T14:50:01.377Z,10.42
2023-03-14T14:52:40.647Z,10.71
2023-03-14T14:55:18.509Z,10.92
2023-03-14T14:57:57.034Z,11.33
2023-03-14T15:00:28.483Z,11.29
2023-03-14T15:02:59.372Z,11.65
2023-03-14T15:05:28.407Z,11.50
2023-03-14T15:07:54.873Z,11.18
2023-03-14T15:10:26.590Z,11.29
2023-03-14T15:12:53.427Z,11.27
2023-03-14T15:15:20.349Z,11.71
2023-03-14T15:17:46.807Z,11.58
2023-03-14T15:20:16.220Z,11.63
2023-03-14T15:22:43.324Z,12.12
2023-03-14T15:25:18.730Z,11.92
2023-03-14T15:27:53.773Z,11.65
2023-03-14T15:30:20.516Z,11.49
2023-03-14T15:32:47.244Z,11.74
2023-03-14T15:35:17.643Z,11.89
2023-03-14T15:37:44.883Z,12.08
2023-03-14T15:40:14.794Z,11.63
2023-03-14T15:42:41.864Z,11.75
2023-03-14T15:45:08.976Z,11.83
2023-03-14T15:47:35.517Z,12.01
2023-03-14T15:50:01.962Z,12.10
2023-03-14T15:52:28.372Z,12.11
2023-03-14T15:54:54.712Z,11.81
2023-03-14T15:57:21.189Z,11.42
2023-03-14T15:59:47.665Z,11.05
2023-03-14T16:02:14.043Z,11.08
2023-03-14T16:04:40.587Z,11.04
2023-03-14T16:07:07.065Z,11.14
2023-03-14T16:09:33.558Z,10.94
2023-03-14T16:12:00.104Z,11.02
2023-03-14T16:14:26.767Z,10.82
2023-03-14T16:16:55.784Z,10.88
2023-03-14T16:19:22.462Z,10.86
2023-03-14T16:21:51.760Z,10.75
2023-03-14T16:24:19.291Z,10.62
2023-03-14T16:26:46.317Z,10.53
2023-03-14T16:29:12.756Z,10.63
2023-03-14T16:31:43.403Z,10.43
2023-03-14T16:34:10.208Z,10.52
2023-03-14T16:36:36.832Z,10.39
2023-03-14T16:39:04.130Z,10.47
2023-03-14T16:41:31.545Z,10.38
2023-03-14T16:43:59.005Z,10.21
2023-03-14T16:46:28.410Z,10.06
2023-03-14T16:48:55.115Z,10.11
2023-03-14T16:51:22.522Z,10.34
2023-03-14T16:53:49.355Z,10.17
2023-03-14T16:56:16.091Z,10.05
2023-03-14T16:58:42.577Z,10.12
2023-03-14T17:01:11.631Z,10.20
2023-03-14T17:03:42.477Z,9.95
2023-03-14T17:06:15.873Z,10.01
2023-03-14T17:08:42.815Z,10.05
2023-03-14T17:11:10.160Z,9.98
2023-03-14T17:13:37.553Z,9.97
2023-03-14T17:16:04.479Z,9.77
2023-03-14T17:18:31.957Z,9.66
2023-03-14T17:20:59.646Z,9.35
2023-03-14T17:23:27.470Z,8.89
2023-03-14T17:25:53.988Z,8.54
2023-03-14T17:28:22.810Z,8.25
2023-03-14T17:30:49.452Z,8.15
2023-03-14T17:33:16.745Z,7.95
2023-03-14T17:35:44.159Z,8.01
2023-03-14T17:38:10.677Z,7.78
2023-03-14T17:40:37.270Z,7.76
2023-03-14T17:43:03.729Z,7.73
2023-03-14T17:45:30.206Z,7.45
2023-03-14T17:47:56.762Z,7.20
2023-03-14T17:50:23.228Z,7.03
2023-03-14T17:52:49.603Z,7.06
2023-03-14T17:55:16.164Z,6.95
2023-03-14T17:57:44.862Z,7.05
2023-03-14T18:00:13.037Z,7.07
2023-03-14T18:02:41.675Z,7.02
2023-03-14T18:05:08.826Z,6.78
2023-03-14T18:07:37.133Z,6.89
2023-03-14T18:10:05.917Z,6.94
2023-03-14T18:12:33.115Z,7.08
2023-03-14T18:14:59.830Z,6.93
2023-03-14T18:17:26.298Z,6.88
2023-03-14T18:19:52.937Z,6.71
2023-03-14T18:22:19.449Z,6.73
2023-03-14T18:24:46.143Z,6.96
2023-03-14T18:27:13.947Z,7.00
2023-03-14T18:29:42.175Z,6.86
2023-03-14T18:32:09.018Z,6.69
2023-03-14T18:34:35.729Z,6.61
2023-03-14T18:37:02.354Z,6.61
2023-03-14T18:39:28.924Z,6.66
2023-03-14T18:41:55.380Z,6.70
2023-03-14T18:44:21.999Z,6.74
2023-03-14T18:46:48.665Z,6.78
2023-03-14T18:49:15.113Z,6.71
2023-03-14T18:51:43.226Z,6.74
2023-03-14T18:54:11.387Z,6.73
2023-03-14T18:56:39.764Z,6.66
2023-03-14T18:59:07.021Z,6.59
2023-03-14T19:01:34.247Z,6.47
2023-03-14T19:04:01.754Z,6.50
2023-03-14T19:06:29.165Z,6.50
2023-03-14T19:08:55.823Z,6.57
2023-03-14T19:11:22.451Z,6.54
2023-03-14T19:13:49.574Z,6.53
2023-03-14T19:16:16.311Z,6.53
2023-03-14T19:18:42.980Z,6.54
2023-03-14T19:21:12.720Z,6.55
2023-03-14T19:23:41.120Z,6.54
2023-03-14T19:26:09.345Z,6.59
2023-03-14T19:28:35.736Z,6.66
2023-03-14T19:31:03.782Z,6.62
2023-03-14T19:33:31.636Z,6.54
2023-03-14T19:35:58.411Z,6.69
2023-03-14T19:38:24.946Z,6.79
2023-03-14T19:40:56.246Z,6.83
2023-03-14T19:43:22.611Z,6.76
2023-03-14T19:45:49.218Z,6.80
2023-03-14T19:48:15.685Z,6.90
2023-03-14T19:50:43.248Z,6.99
2023-03-14T19:53:10.871Z,7.10
2023-03-14T19:55:38.177Z,7.12
2023-03-14T19:58:05.335Z,7.07
2023-03-14T20:00:31.970Z,7.07
2023-03-14T20:02:58.425Z,7.08
2023-03-14T20:05:25.234Z,7.01
2023-03-14T20:07:51.753Z,7.02
2023-03-14T20:10:22.684Z,7.05
2023-03-14T20:12:50.618Z,6.88
2023-03-14T20:15:19.447Z,6.85
2023-03-14T20:17:47.066Z,6.85
2023-03-14T20:20:13.860Z,6.91
2023-03-14T20:22:40.895Z,6.93
2023-03-14T20:25:12.944Z,7.00
2023-03-14T20:27:40.590Z,7.00
2023-03-14T20:30:12.583Z,7.13
2023-03-14T20:32:40.546Z,7.19
2023-03-14T20:35:08.525Z,7.22
2023-03-14T20:37:35.167Z,7.22
2023-03-14T20:40:01.536Z,7.31
2023-03-14T20:42:28.127Z,7.38
2023-03-14T20:44:54.779Z,7.37
2023-03-14T20:47:21.316Z,7.43
2023-03-14T20:49:47.919Z,7.50
2023-03-14T20:52:14.393Z,7.48
2023-03-14T20:54:41.190Z,7.43
2023-03-14T20:57:07.599Z,7.37
2023-03-14T20:59:34.017Z,7.30
2023-03-14T21:02:00.583Z,7.34
2023-03-14T21:04:27.393Z,7.33
2023-03-14T21:06:56.963Z,7.26
2023-03-14T21:09:24.733Z,7.00
2023-03-14T21:11:51.379Z,6.92
2023-03-14T21:14:18.622Z,6.91
2023-03-14T21:16:46.197Z,6.66
2023-03-14T21:19:13.495Z,6.58
2023-03-14T21:21:40.992Z,6.35
2023-03-14T21:24:08.281Z,6.29
2023-03-14T21:26:34.697Z,6.13
2023-03-14T21:29:03.132Z,6.19
2023-03-14T21:31:33.001Z,6.03
2023-03-14T21:34:00.055Z,5.98
2023-03-14T21:36:26.513Z,5.96
2023-03-14T21:38:54.276Z,5.91
2023-03-14T21:41:20.710Z,5.99
2023-03-14T21:43:47.227Z,6.05
2023-03-14T21:46:13.741Z,6.03
2023-03-14T21:48:40.196Z,5.99
2023-03-14T21:51:07.497Z,5.61
2023-03-14T21:53:34.832Z,5.60
2023-03-14T21:56:01.667Z,5.59
2023-03-14T21:58:28.270Z,5.70
2023-03-14T22:01:01.622Z,5.90
2023-03-14T22:03:28.477Z,5.89
2023-03-14T22:05:54.865Z,5.93
2023-03-14T22:08:22.625Z,5.81
2023-03-14T22:10:51.741Z,5.78
2023-03-14T22:13:19.550Z,5.82
2023-03-14T22:15:47.631Z,5.67
2023-03-14T22:18:14.592Z,5.79
2023-03-14T22:20:42.122Z,5.71
2023-03-14T22:23:09.265Z,5.76
2023-03-14T22:25:35.648Z,5.89
2023-03-14T22:28:02.243Z,6.01
2023-03-14T22:30:28.730Z,5.79
2023-03-14T22:32:56.673Z,5.79
2023-03-14T22:35:23.163Z,5.87
2023-03-14T22:37:49.577Z,5.87
2023-03-14T22:40:16.425Z,5.94
2023-03-14T22:42:42.909Z,6.00
2023-03-14T22:45:09.562Z,6.06
2023-03-14T22:47:36.002Z,6.17
2023-03-14T22:50:04.610Z,6.16
2023-03-14T22:52:32.215Z,6.19
2023-03-14T22:54:58.724Z,6.18
2023-03-14T22:57:25.324Z,6.02
2023-03-14T22:59:51.731Z,5.62
2023-03-14T23:02:18.123Z,5.36
2023-03-14T23:04:44.476Z,4.99
2023-03-14T23:07:11.110Z,4.89
2023-03-14T23:09:39.635Z,4.70
2023-03-14T23:12:06.306Z,4.58
2023-03-14T23:14:32.672Z,4.61
2023-03-14T23:16:59.244Z,4.57
2023-03-14T23:19:28.980Z,4.52
2023-03-14T23:21:55.681Z,4.42
2023-03-14T23:24:22.719Z,4.22
2023-03-14T23:26:49.236Z,4.23
2023-03-14T23:29:15.902Z,4.25
2023-03-14T23:31:42.548Z,4.24
2023-03-14T23:34:09.760Z,4.14
2023-03-14T23:36:37.220Z,4.21
2023-03-14T23:39:05.612Z,4.26
2023-03-14T23:41:32.296Z,4.21
2023-03-14T23:43:58.756Z,4.19
2023-03-14T23:46:25.154Z,4.26
2023-03-14T23:48:52.500Z,4.31
2023-03-14T23:51:18.884Z,4.24
2023-03-14T23:53:45.311Z,4.21
2023-03-14T23:56:13.518Z,4.25
2023-03-14T23:58:40.790Z,4.21
